Hollyglen, California
Current Conditions -  °F | °C
As of 2:53 AM on Monday 29 Dec 2014 (Local Time) from KHHR Reporting Station
Clear Clear  
Wind Chill: 48°   Ceiling: Unl
Heat Index: 48°   Visibility: 10mi
Dew Point: 32°   Wind: 3mph
Humidity: 54%   Direction: NA
Pressure: 30.15"   Gusts: NA
Location:  33.9143°N, 118.349°W
Report Text: KHHR 291053Z AUTO VRB03KT 10SM CLR 09/00 A3015 RMK AO2 SLP209 T00890000
Loading
Personal Weather Stations






























Interactive Weather Map New forecast layout! Learn more

10-Day Weather Forecast

Advertisements
Track Severe Weather on mobile